Accueil
METAR-TAF:

METAR-TAF

Aéroports :

Base aérienne de Florennes

Florennes, Belgique

latitude: 50-14N, longitude: 004-39E, altitude: 279 m

Observation

Le bulletin a été fait il y a 35 minutes, à 14:55 UTC
Vent 2 kt de direction variable
Température 2°C
Humidité 55%
Pression 1020 hPa
Visibilité 10 km ou plus
Quelques nuages à une hauteur de 22000 ft

METAR: EBFS 211455Z VRB02KT 9999 FEW220 02/M06 Q1020 BLU BLU

Heure: 16:30 (15:30 UTC)

Prévision

Le bulletin a été fait il y a 3 heures et 49 minutes, à 11:41 UTC
Prévision valable du 21 à 13 UTC au 21 à 22 UTC
Vent 3 kt de direction variable
Visibilité 10 km ou plus
Quelques nuages à une hauteur de 23000 ft
Evoluant progressivement
du 21 à 17 UTC au 21 à 19 UTC
Vent 5 kt de ouest/sud-ouest
Nuages épars à une hauteur de 23000 ft

TAF: EBFS 211141Z 2113/2122 VRB03KT 9999 FEW230 BECMG 2117/2119 24005KT SCT230

Observations et prévisions météorologiques de plus de 4000 aéroports (messages METAR et TAF).

Les stations disponibles sont représentées par des disques jaunes et rouges sur la carte.

Passer la souris dessus pour voir le nom de la station.

Cliquer dessus pour voir les observations et prévisions météorologiques.

Pour changer de carte: cliquez sur les boutons verts avec une croix noire pour zoomer, sur le bouton vert avec un tiret pour effectuer un zoom arrière, ou sur les flèches vertes pour les cartes adjacentes.


METAR-TAF: